createdAt,value
2019-04-14T00:00:29.961Z,857
2019-04-14T00:01:32.286Z,858
2019-04-14T00:02:34.602Z,856
2019-04-14T00:03:36.784Z,858
2019-04-14T00:04:39.132Z,881
2019-04-14T00:05:41.331Z,881
2019-04-14T00:06:43.628Z,865
2019-04-14T00:07:45.896Z,855
2019-04-14T00:08:48.157Z,858
2019-04-14T00:09:52.673Z,856
2019-04-14T00:10:52.710Z,852
2019-04-14T00:11:54.976Z,852
2019-04-14T00:12:57.290Z,848
2019-04-14T00:13:59.535Z,848
2019-04-14T00:15:01.888Z,849
2019-04-14T00:16:04.075Z,842
2019-04-14T00:17:06.478Z,844
2019-04-14T00:18:08.618Z,847
2019-04-14T00:19:10.891Z,852
2019-04-14T00:20:13.257Z,853
2019-04-14T00:21:18.097Z,874
2019-04-14T00:22:17.718Z,856
2019-04-14T00:23:19.982Z,855
2019-04-14T00:24:22.260Z,846
2019-04-14T00:25:24.807Z,854
2019-04-14T00:26:29.953Z,847
2019-04-14T00:27:29.186Z,847
2019-04-14T00:28:31.346Z,849
2019-04-14T00:29:33.616Z,839
2019-04-14T00:30:35.996Z,840
2019-04-14T00:31:38.160Z,844
2019-04-14T00:32:40.441Z,838
2019-04-14T00:33:42.732Z,842
2019-04-14T00:34:45.218Z,844
2019-04-14T00:35:47.281Z,847
2019-04-14T00:36:53.327Z,829
2019-04-14T00:37:51.885Z,837
2019-04-14T00:38:54.094Z,828
2019-04-14T00:39:56.390Z,833
2019-04-14T00:40:59.221Z,834
2019-04-14T00:42:00.927Z,823
2019-04-14T00:43:03.228Z,821
2019-04-14T00:44:05.455Z,832
2019-04-14T00:45:07.723Z,826
2019-04-14T00:46:11.200Z,822
2019-04-14T00:47:12.269Z,824
2019-04-14T00:48:14.541Z,822
2019-04-14T00:49:16.847Z,834
2019-04-14T00:50:19.084Z,833
2019-04-14T00:51:21.434Z,833
2019-04-14T00:52:23.642Z,826
2019-04-14T00:53:25.904Z,822
2019-04-14T00:54:28.296Z,835
2019-04-14T00:55:30.550Z,828
2019-04-14T00:56:36.260Z,828
2019-04-14T00:57:35.173Z,832
2019-04-14T00:58:37.366Z,811
2019-04-14T00:59:39.651Z,824
2019-04-14T01:00:41.996Z,821
2019-04-14T01:01:44.192Z,813
2019-04-14T01:02:49.122Z,824
2019-04-14T01:03:48.718Z,827
2019-04-14T01:04:51.048Z,838
2019-04-14T01:05:53.380Z,820
2019-04-14T01:06:55.615Z,830
2019-04-14T01:07:57.856Z,834
2019-04-14T01:09:00.091Z,828
2019-04-14T01:10:02.374Z,826
2019-04-14T01:11:04.679Z,830
2019-04-14T01:12:07.036Z,826
2019-04-14T01:13:09.278Z,816
2019-04-14T01:14:11.556Z,827
2019-04-14T01:15:13.825Z,820
2019-04-14T01:16:16.100Z,828
2019-04-14T01:17:18.359Z,824
2019-04-14T01:18:20.636Z,819
2019-04-14T01:19:22.902Z,819
2019-04-14T01:20:25.180Z,810
2019-04-14T01:21:27.463Z,826
2019-04-14T01:22:29.851Z,806
2019-04-14T01:23:32.067Z,814
2019-04-14T01:24:34.272Z,812
2019-04-14T01:25:36.594Z,812
2019-04-14T01:26:38.913Z,803
2019-04-14T01:27:41.111Z,816
2019-04-14T01:28:43.446Z,822
2019-04-14T01:30:47.914Z,818
2019-04-14T01:31:50.277Z,798
2019-04-14T01:32:52.478Z,809
2019-04-14T01:33:54.740Z,809
2019-04-14T01:34:57.046Z,813
2019-04-14T01:35:59.364Z,822
2019-04-14T01:37:05.689Z,822
2019-04-14T01:38:03.819Z,807
2019-04-14T01:39:06.244Z,822
2019-04-14T01:40:08.448Z,794
2019-04-14T01:41:10.776Z,799
2019-04-14T01:42:12.905Z,809
2019-04-14T01:43:15.202Z,824
2019-04-14T01:44:17.447Z,808
2019-04-14T01:45:19.736Z,815
2019-04-14T01:46:22.008Z,803
2019-04-14T01:47:24.316Z,809
2019-04-14T01:48:26.638Z,812
2019-04-14T01:49:28.834Z,807
2019-04-14T01:50:31.085Z,806
2019-04-14T01:51:33.356Z,825
2019-04-14T01:52:35.642Z,816
2019-04-14T01:53:37.898Z,813
2019-04-14T01:54:40.230Z,792
2019-04-14T01:55:42.461Z,801
2019-04-14T01:56:44.717Z,793
2019-04-14T01:57:47.093Z,795
2019-04-14T01:58:49.292Z,800
2019-04-14T01:59:51.575Z,803
2019-04-14T02:00:53.847Z,812
2019-04-14T02:01:56.100Z,793
2019-04-14T02:02:58.345Z,808
2019-04-14T02:04:00.619Z,799
2019-04-14T02:05:02.889Z,806
2019-04-14T02:06:05.205Z,795
2019-04-14T02:07:07.450Z,806
2019-04-14T02:08:09.713Z,808
2019-04-14T02:09:11.995Z,797
2019-04-14T02:10:14.265Z,802
2019-04-14T02:11:16.655Z,811
2019-04-14T02:12:18.841Z,795
2019-04-14T02:13:21.056Z,797
2019-04-14T02:14:23.355Z,803
2019-04-14T02:15:25.768Z,790
2019-04-14T02:16:27.963Z,803
2019-04-14T02:17:30.312Z,805
2019-04-14T02:18:32.838Z,804
2019-04-14T02:19:34.803Z,801
2019-04-14T02:20:37.066Z,791
2019-04-14T02:21:39.443Z,799
2019-04-14T02:22:41.639Z,804
2019-04-14T02:23:43.863Z,802
2019-04-14T02:24:46.171Z,806
2019-04-14T02:25:48.410Z,806
2019-04-14T02:26:50.784Z,807
2019-04-14T02:27:52.958Z,797
2019-04-14T02:28:55.227Z,797
2019-04-14T02:29:57.496Z,802
2019-04-14T02:30:59.786Z,794
2019-04-14T02:32:02.135Z,808
2019-04-14T02:33:04.500Z,808
2019-04-14T02:34:06.718Z,812
2019-04-14T02:35:08.887Z,827
2019-04-14T02:36:11.209Z,800
2019-04-14T02:37:13.398Z,812
2019-04-14T02:38:15.677Z,818
2019-04-14T02:39:17.950Z,822
2019-04-14T02:40:20.299Z,803
2019-04-14T02:41:22.487Z,814
2019-04-14T02:42:24.780Z,815
2019-04-14T02:43:27.017Z,815
2019-04-14T02:44:29.300Z,819
2019-04-14T02:45:31.589Z,815
2019-04-14T02:46:33.832Z,829
2019-04-14T02:47:40.002Z,833
2019-04-14T02:48:38.383Z,810
2019-04-14T02:49:40.702Z,828
2019-04-14T02:50:42.926Z,818
2019-04-14T02:51:45.224Z,827
2019-04-14T02:52:47.471Z,841
2019-04-14T02:53:49.808Z,827
2019-04-14T02:54:52.020Z,827
2019-04-14T02:55:54.287Z,824
2019-04-14T02:56:56.679Z,822
2019-04-14T02:57:58.836Z,815
2019-04-14T02:59:01.173Z,826
2019-04-14T03:00:03.401Z,838
2019-04-14T03:01:05.805Z,828
2019-04-14T03:02:07.926Z,839
2019-04-14T03:03:10.215Z,827
2019-04-14T03:04:12.469Z,844
2019-04-14T03:05:14.826Z,838
2019-04-14T03:06:17.032Z,829
2019-04-14T03:07:19.290Z,836
2019-04-14T03:08:21.645Z,833
2019-04-14T03:09:23.845Z,842
2019-04-14T03:10:26.109Z,835
2019-04-14T03:11:28.353Z,824
2019-04-14T03:12:30.628Z,836
2019-04-14T03:13:34.857Z,828
2019-04-14T03:14:35.219Z,834
2019-04-14T03:15:37.449Z,843
2019-04-14T03:16:39.831Z,845
2019-04-14T03:17:42.014Z,826
2019-04-14T03:18:47.744Z,842
2019-04-14T03:19:46.652Z,842
2019-04-14T03:20:48.922Z,836
2019-04-14T03:21:51.169Z,844
2019-04-14T03:22:53.451Z,829
2019-04-14T03:23:55.770Z,835
2019-04-14T03:24:58.021Z,836
2019-04-14T03:26:00.276Z,845
2019-04-14T03:27:02.533Z,834
2019-04-14T03:28:04.862Z,833
2019-04-14T03:29:07.062Z,843
2019-04-14T03:30:09.354Z,848
2019-04-14T03:31:11.692Z,847
2019-04-14T03:32:14.021Z,839
2019-04-14T03:33:16.154Z,847
2019-04-14T03:34:18.470Z,845
2019-04-14T03:35:20.689Z,842
2019-04-14T03:36:23.004Z,842
2019-04-14T03:37:25.297Z,850
2019-04-14T03:38:27.668Z,856
2019-04-14T03:39:29.920Z,844
2019-04-14T03:40:32.207Z,850
2019-04-14T03:41:34.477Z,851
2019-04-14T03:42:36.734Z,846
2019-04-14T03:43:39.025Z,843
2019-04-14T03:44:41.322Z,838
2019-04-14T03:45:43.582Z,843
2019-04-14T03:46:45.858Z,834
2019-04-14T03:47:48.111Z,848
2019-04-14T03:48:50.583Z,851
2019-04-14T03:49:52.651Z,848
2019-04-14T03:50:54.914Z,855
2019-04-14T03:51:57.228Z,858
2019-04-14T03:52:59.455Z,842
2019-04-14T03:54:01.767Z,845
2019-04-14T03:55:03.989Z,850
2019-04-14T03:56:06.266Z,838
2019-04-14T03:57:08.546Z,840
2019-04-14T03:58:10.836Z,844
2019-04-14T03:59:13.084Z,844
2019-04-14T04:00:15.393Z,845
2019-04-14T04:01:19.220Z,834
2019-04-14T04:02:19.907Z,834
2019-04-14T04:03:22.182Z,845
2019-04-14T04:04:24.457Z,846
2019-04-14T04:05:26.737Z,846
2019-04-14T04:06:29.000Z,849
2019-04-14T04:07:31.277Z,840
2019-04-14T04:08:33.527Z,852
2019-04-14T04:09:35.856Z,836
2019-04-14T04:10:38.153Z,849
2019-04-14T04:11:40.557Z,847
2019-04-14T04:12:42.638Z,851
2019-04-14T04:13:44.892Z,849
2019-04-14T04:14:47.172Z,846
2019-04-14T04:15:49.453Z,849
2019-04-14T04:16:51.707Z,842
2019-04-14T04:17:54.138Z,835
2019-04-14T04:18:56.344Z,838
2019-04-14T04:19:58.565Z,848
2019-04-14T04:21:00.825Z,849
2019-04-14T04:22:03.177Z,844
2019-04-14T04:23:05.468Z,845
2019-04-14T04:24:07.706Z,835
2019-04-14T04:25:09.972Z,847
2019-04-14T04:26:12.242Z,845
2019-04-14T04:27:14.609Z,838
2019-04-14T04:28:16.819Z,854
2019-04-14T04:29:19.065Z,851
2019-04-14T04:30:21.381Z,837
2019-04-14T04:31:23.612Z,858
2019-04-14T04:32:25.879Z,845
2019-04-14T04:33:28.143Z,858
2019-04-14T04:34:30.465Z,845
2019-04-14T04:35:32.690Z,850
2019-04-14T04:36:35.132Z,845
2019-04-14T04:37:37.276Z,849
2019-04-14T04:38:39.515Z,856
2019-04-14T04:39:41.769Z,850
2019-04-14T04:40:44.054Z,849
2019-04-14T04:41:46.333Z,857
2019-04-14T04:42:48.597Z,840
2019-04-14T04:43:50.873Z,845
2019-04-14T04:44:53.243Z,860
2019-04-14T04:45:55.413Z,865
2019-04-14T04:46:57.693Z,859
2019-04-14T04:48:00.058Z,857
2019-04-14T04:49:02.243Z,865
2019-04-14T04:50:04.491Z,863
2019-04-14T04:51:06.798Z,857
2019-04-14T04:52:09.047Z,851
2019-04-14T04:53:11.407Z,861
2019-04-14T04:54:13.609Z,858
2019-04-14T04:55:15.987Z,861
2019-04-14T04:56:18.392Z,868
2019-04-14T04:57:20.414Z,862
2019-04-14T04:58:22.684Z,862
2019-04-14T04:59:24.957Z,863
2019-04-14T05:00:27.219Z,865
2019-04-14T05:01:29.498Z,865
2019-04-14T05:02:31.779Z,862
2019-04-14T05:03:34.058Z,869
2019-04-14T05:04:36.467Z,854
2019-04-14T05:05:38.599Z,863
2019-04-14T05:06:40.997Z,863
2019-04-14T05:07:43.151Z,863
2019-04-14T05:08:45.400Z,863
2019-04-14T05:09:47.672Z,867
2019-04-14T05:10:49.946Z,865
2019-04-14T05:11:52.279Z,856
2019-04-14T05:12:54.494Z,859
2019-04-14T05:13:56.850Z,867
2019-04-14T05:14:59.161Z,864
2019-04-14T05:16:01.308Z,870
2019-04-14T05:17:03.597Z,874
2019-04-14T05:18:05.882Z,858
2019-04-14T05:19:08.133Z,860
2019-04-14T05:20:10.381Z,866
2019-04-14T05:21:12.789Z,865
2019-04-14T05:22:14.949Z,863
2019-04-14T05:23:17.196Z,862
2019-04-14T05:24:19.581Z,855
2019-04-14T05:25:21.842Z,844
2019-04-14T05:26:24.128Z,854
2019-04-14T05:27:26.397Z,854
2019-04-14T05:28:28.661Z,855
2019-04-14T05:29:31.125Z,860
2019-04-14T05:30:33.212Z,854
2019-04-14T05:31:35.496Z,854
2019-04-14T05:32:37.928Z,854
2019-04-14T05:33:40.007Z,854
2019-04-14T05:34:42.276Z,851
2019-04-14T05:35:44.550Z,851
2019-04-14T05:36:46.829Z,848
2019-04-14T05:37:49.190Z,838
2019-04-14T05:38:51.410Z,844
2019-04-14T05:39:53.668Z,850
2019-04-14T05:40:55.901Z,838
2019-04-14T05:41:58.219Z,853
2019-04-14T05:43:00.448Z,835
2019-04-14T05:44:02.733Z,845
2019-04-14T05:45:05.047Z,842
2019-04-14T05:46:07.324Z,840
2019-04-14T05:47:09.575Z,854
2019-04-14T05:48:11.824Z,846
2019-04-14T05:49:19.273Z,844
2019-04-14T05:50:16.347Z,845
2019-04-14T05:51:18.661Z,832
2019-04-14T05:52:20.900Z,849
2019-04-14T05:53:23.184Z,854
2019-04-14T05:54:25.453Z,834
2019-04-14T05:55:27.725Z,840
2019-04-14T05:56:30.094Z,854
2019-04-14T05:57:32.279Z,837
2019-04-14T05:58:34.626Z,849
2019-04-14T05:59:36.906Z,843
2019-04-14T06:00:39.083Z,853
2019-04-14T06:01:41.395Z,840
2019-04-14T06:02:43.737Z,840
2019-04-14T06:03:46.006Z,846
2019-04-14T06:04:51.403Z,850
2019-04-14T06:05:51.882Z,847
2019-04-14T06:06:52.859Z,835
2019-04-14T06:07:55.008Z,840
2019-04-14T06:08:57.258Z,839
2019-04-14T06:09:59.522Z,831
2019-04-14T06:11:01.794Z,840
2019-04-14T06:12:04.069Z,838
2019-04-14T06:13:06.376Z,846
2019-04-14T06:14:08.612Z,840
2019-04-14T06:15:10.941Z,842
2019-04-14T06:16:13.155Z,847
2019-04-14T06:17:15.514Z,838
2019-04-14T06:18:17.775Z,844
2019-04-14T06:19:20.053Z,847
2019-04-14T06:20:22.460Z,830
2019-04-14T06:21:24.517Z,847
2019-04-14T06:22:26.785Z,860
2019-04-14T06:23:29.141Z,846
2019-04-14T06:24:31.367Z,838
2019-04-14T06:25:33.757Z,848
2019-04-14T06:26:35.896Z,849
2019-04-14T06:27:38.156Z,840
2019-04-14T06:28:40.571Z,844
2019-04-14T06:29:42.702Z,834
2019-04-14T06:30:44.971Z,843
2019-04-14T06:31:47.236Z,848
2019-04-14T06:32:49.707Z,851
2019-04-14T06:33:51.796Z,851
2019-04-14T06:34:55.709Z,845
2019-04-14T06:35:56.328Z,858
2019-04-14T06:36:58.637Z,852
2019-04-14T06:38:00.938Z,860
2019-04-14T06:39:03.155Z,858
2019-04-14T06:40:05.424Z,838
2019-04-14T06:41:07.705Z,861
2019-04-14T06:42:09.970Z,844
2019-04-14T06:43:12.384Z,852
2019-04-14T06:44:14.510Z,855
2019-04-14T06:45:16.920Z,858
2019-04-14T06:46:19.102Z,854
2019-04-14T06:47:21.407Z,858
2019-04-14T06:48:23.622Z,849
2019-04-14T06:49:25.871Z,857
2019-04-14T06:50:28.217Z,869
2019-04-14T06:51:30.408Z,869
2019-04-14T06:52:32.690Z,876
2019-04-14T06:53:34.999Z,872
2019-04-14T06:54:37.229Z,855
2019-04-14T06:55:39.501Z,869
2019-04-14T06:56:41.849Z,881
2019-04-14T06:57:44.073Z,897
2019-04-14T06:58:46.322Z,883
2019-04-14T06:59:48.662Z,879
2019-04-14T07:00:51.054Z,879
2019-04-14T07:01:53.145Z,877
2019-04-14T07:02:55.418Z,866
2019-04-14T07:03:57.700Z,873
2019-04-14T07:04:59.966Z,870
2019-04-14T07:06:02.229Z,881
2019-04-14T07:07:04.638Z,872
2019-04-14T07:08:06.781Z,867
2019-04-14T07:09:09.055Z,872
2019-04-14T07:10:11.330Z,876
2019-04-14T07:11:13.614Z,878
2019-04-14T07:12:15.876Z,873
2019-04-14T07:13:18.218Z,886
2019-04-14T07:14:20.404Z,870
2019-04-14T07:15:25.129Z,886
2019-04-14T07:16:25.059Z,875
2019-04-14T07:17:27.227Z,902
2019-04-14T07:18:29.497Z,916
2019-04-14T07:19:34.318Z,920
2019-04-14T07:20:34.046Z,904
2019-04-14T07:21:36.391Z,897
2019-04-14T07:22:38.593Z,896
2019-04-14T07:23:40.857Z,900
2019-04-14T07:24:43.192Z,897
2019-04-14T07:25:45.530Z,899
2019-04-14T07:26:47.708Z,906
2019-04-14T07:27:50.012Z,924
2019-04-14T07:28:52.322Z,920
2019-04-14T07:29:54.485Z,907
2019-04-14T07:30:56.781Z,909
2019-04-14T07:31:59.054Z,908
2019-04-14T07:33:01.323Z,903
2019-04-14T07:34:03.683Z,926
2019-04-14T07:35:06.075Z,954
2019-04-14T07:36:08.287Z,943
2019-04-14T07:37:10.398Z,929
2019-04-14T07:38:12.753Z,917
2019-04-14T07:39:15.035Z,924
2019-04-14T07:40:17.345Z,915
2019-04-14T07:41:19.480Z,927
2019-04-14T07:42:21.862Z,927
2019-04-14T07:43:24.009Z,931
2019-04-14T07:44:26.429Z,925
2019-04-14T07:45:28.631Z,925
2019-04-14T07:46:30.850Z,926
2019-04-14T07:47:33.177Z,922
2019-04-14T07:48:35.464Z,932
2019-04-14T07:49:37.673Z,920
2019-04-14T07:50:39.964Z,918
2019-04-14T07:51:42.211Z,938
2019-04-14T07:52:44.469Z,943
2019-04-14T07:53:51.126Z,924
2019-04-14T07:54:49.091Z,940
2019-04-14T07:55:51.404Z,936
2019-04-14T07:56:53.562Z,931
2019-04-14T07:57:55.928Z,929
2019-04-14T07:58:58.123Z,942
2019-04-14T08:00:00.498Z,956
2019-04-14T08:01:02.629Z,973
2019-04-14T08:02:04.917Z,960
2019-04-14T08:03:07.189Z,958
2019-04-14T08:04:09.545Z,958
2019-04-14T08:05:11.732Z,947
2019-04-14T08:06:14.003Z,946
2019-04-14T08:07:16.283Z,962
2019-04-14T08:08:18.675Z,940
2019-04-14T08:09:20.842Z,942
2019-04-14T08:10:23.127Z,931
2019-04-14T08:11:25.381Z,934
2019-04-14T08:12:27.621Z,940
2019-04-14T08:13:29.891Z,936
2019-04-14T08:14:32.166Z,937
2019-04-14T08:15:34.519Z,940
2019-04-14T08:16:36.707Z,943
2019-04-14T08:17:39.015Z,947
2019-04-14T08:18:41.281Z,964
2019-04-14T08:19:43.610Z,954
2019-04-14T08:20:45.815Z,952
2019-04-14T08:21:48.181Z,942
2019-04-14T08:22:50.381Z,943
2019-04-14T08:23:52.642Z,946
2019-04-14T08:24:54.919Z,940
2019-04-14T08:25:57.177Z,943
2019-04-14T08:26:59.437Z,950
2019-04-14T08:28:01.771Z,938
2019-04-14T08:29:03.995Z,936
2019-04-14T08:30:06.289Z,938
2019-04-14T08:31:08.513Z,946
2019-04-14T08:32:10.788Z,935
2019-04-14T08:33:13.096Z,933
2019-04-14T08:34:15.456Z,934
2019-04-14T08:35:17.686Z,945
2019-04-14T08:36:19.910Z,947
2019-04-14T08:37:26.816Z,941
2019-04-14T08:38:24.440Z,956
2019-04-14T08:39:26.744Z,1021
2019-04-14T08:40:28.988Z,1115
2019-04-14T08:41:31.252Z,1073
2019-04-14T08:42:33.521Z,995
2019-04-14T08:43:35.888Z,998
2019-04-14T08:44:38.219Z,980
2019-04-14T08:45:40.344Z,968
2019-04-14T08:46:42.618Z,974
2019-04-14T08:47:44.891Z,965
2019-04-14T08:48:47.226Z,949
2019-04-14T08:49:49.524Z,954
2019-04-14T08:50:51.698Z,982
2019-04-14T08:51:54.033Z,952
2019-04-14T08:52:56.298Z,961
2019-04-14T08:53:58.530Z,949
2019-04-14T08:55:00.800Z,945
2019-04-14T08:56:03.055Z,942
2019-04-14T08:57:05.360Z,947
2019-04-14T08:58:07.662Z,949
2019-04-14T08:59:09.874Z,940
2019-04-14T09:00:12.466Z,957
2019-04-14T09:01:14.465Z,960
2019-04-14T09:02:16.831Z,950
2019-04-14T09:03:19.044Z,954
2019-04-14T09:04:21.337Z,959
2019-04-14T09:05:23.904Z,946
2019-04-14T09:06:25.822Z,952
2019-04-14T09:07:28.141Z,954
2019-04-14T09:08:30.345Z,941
2019-04-14T09:09:32.685Z,945
2019-04-14T09:10:35.006Z,958
2019-04-14T09:11:37.195Z,968
2019-04-14T09:12:39.564Z,949
2019-04-14T09:13:41.813Z,955
2019-04-14T09:14:43.973Z,945
2019-04-14T09:15:46.387Z,955
2019-04-14T09:16:48.583Z,950
2019-04-14T09:17:50.804Z,940
2019-04-14T09:18:53.063Z,938
2019-04-14T09:19:55.400Z,934
2019-04-14T09:20:57.690Z,942
2019-04-14T09:21:59.903Z,957
2019-04-14T09:23:02.237Z,968
2019-04-14T09:24:04.471Z,964
2019-04-14T09:25:06.771Z,960
2019-04-14T09:26:08.967Z,958
2019-04-14T09:27:11.247Z,963
2019-04-14T09:28:13.524Z,958
2019-04-14T09:29:15.793Z,954
2019-04-14T09:30:18.061Z,968
2019-04-14T09:31:20.370Z,950
2019-04-14T09:32:22.606Z,955
2019-04-14T09:33:24.989Z,961
2019-04-14T09:34:27.475Z,955
2019-04-14T09:35:29.419Z,979
2019-04-14T09:36:31.704Z,974
2019-04-14T09:37:33.983Z,966
2019-04-14T09:38:36.269Z,981
2019-04-14T09:39:38.570Z,979
2019-04-14T09:40:40.785Z,974
2019-04-14T09:41:43.088Z,959
2019-04-14T09:42:45.325Z,956
2019-04-14T09:43:49.175Z,975
2019-04-14T09:44:49.953Z,964
2019-04-14T09:45:52.181Z,960
2019-04-14T09:46:54.437Z,945
2019-04-14T09:47:56.696Z,963
2019-04-14T09:48:58.990Z,975
2019-04-14T09:50:01.222Z,974
2019-04-14T09:51:03.593Z,970
2019-04-14T09:52:05.903Z,956
2019-04-14T09:53:08.077Z,953
2019-04-14T09:54:10.313Z,978
2019-04-14T09:55:12.758Z,961
2019-04-14T09:56:14.920Z,959
2019-04-14T09:57:17.155Z,963
2019-04-14T09:58:19.442Z,958
2019-04-14T09:59:22.076Z,964
2019-04-14T10:00:23.960Z,963
2019-04-14T10:01:26.248Z,952
2019-04-14T10:02:28.489Z,949
2019-04-14T10:03:34.591Z,962
2019-04-14T10:04:33.032Z,959
2019-04-14T10:05:35.349Z,962
2019-04-14T10:06:37.681Z,961
2019-04-14T10:07:39.845Z,961
2019-04-14T10:08:42.126Z,967
2019-04-14T10:09:44.474Z,948
2019-04-14T10:10:46.786Z,963
2019-04-14T10:11:48.964Z,984
2019-04-14T10:12:51.212Z,981
2019-04-14T10:13:53.500Z,959
2019-04-14T10:14:55.923Z,961
2019-04-14T10:15:58.022Z,956
2019-04-14T10:17:00.381Z,972
2019-04-14T10:18:02.576Z,967
2019-04-14T10:19:04.848Z,974
2019-04-14T10:20:07.130Z,975
2019-04-14T10:21:09.546Z,966
2019-04-14T10:22:11.668Z,970
2019-04-14T10:23:13.940Z,966
2019-04-14T10:24:16.195Z,987
2019-04-14T10:25:18.470Z,959
2019-04-14T10:26:20.743Z,961
2019-04-14T10:27:23.141Z,977
2019-04-14T10:28:25.353Z,953
2019-04-14T10:29:27.564Z,965
2019-04-14T10:30:29.906Z,970
2019-04-14T10:31:32.104Z,952
2019-04-14T10:32:34.421Z,957
2019-04-14T10:33:36.695Z,970
2019-04-14T10:34:38.935Z,1027
2019-04-14T10:35:41.188Z,1000
2019-04-14T10:36:43.674Z,988
2019-04-14T10:37:45.809Z,972
2019-04-14T10:38:48.097Z,990
2019-04-14T10:39:50.334Z,977
2019-04-14T10:40:52.896Z,979
2019-04-14T10:41:54.883Z,970
2019-04-14T10:42:57.198Z,967
2019-04-14T10:43:59.386Z,969
2019-04-14T10:45:01.801Z,979
2019-04-14T10:46:03.927Z,968
2019-04-14T10:47:06.190Z,959
2019-04-14T10:48:08.473Z,965
2019-04-14T10:49:10.747Z,1018
2019-04-14T10:50:13.044Z,1000
2019-04-14T10:51:15.315Z,993
2019-04-14T10:52:17.556Z,975
2019-04-14T10:53:19.880Z,986
2019-04-14T10:54:22.101Z,982
2019-04-14T10:55:24.378Z,990
2019-04-14T10:56:26.693Z,988
2019-04-14T10:57:28.926Z,975
2019-04-14T10:58:31.188Z,978
2019-04-14T10:59:33.503Z,977
2019-04-14T11:00:35.748Z,973
2019-04-14T11:01:38.067Z,972
2019-04-14T11:02:40.300Z,992
2019-04-14T11:03:42.612Z,988
2019-04-14T11:04:45.016Z,970
2019-04-14T11:05:47.235Z,987
2019-04-14T11:06:49.374Z,995
2019-04-14T11:07:54.047Z,986
2019-04-14T11:08:53.912Z,985
2019-04-14T11:09:56.244Z,998
2019-04-14T11:10:58.460Z,979
2019-04-14T11:12:00.822Z,986
2019-04-14T11:13:03.019Z,999
2019-04-14T11:14:05.441Z,993
2019-04-14T11:15:07.565Z,979
2019-04-14T11:16:09.829Z,983
2019-04-14T11:17:12.182Z,974
2019-04-14T11:18:14.387Z,985
2019-04-14T11:19:16.631Z,977
2019-04-14T11:20:18.908Z,997
2019-04-14T11:21:21.364Z,995
2019-04-14T11:22:23.491Z,991
2019-04-14T11:23:25.730Z,976
2019-04-14T11:24:27.999Z,996
2019-04-14T11:25:30.286Z,988
2019-04-14T11:26:32.551Z,987
2019-04-14T11:27:34.840Z,982
2019-04-14T11:28:37.088Z,995
2019-04-14T11:29:39.366Z,991
2019-04-14T11:30:42.163Z,975
2019-04-14T11:31:43.964Z,1002
2019-04-14T11:32:46.182Z,988
2019-04-14T11:33:48.454Z,993
2019-04-14T11:34:50.725Z,993
2019-04-14T11:35:53.038Z,988
2019-04-14T11:36:55.275Z,991
2019-04-14T11:37:57.724Z,986
2019-04-14T11:39:03.031Z,971
2019-04-14T11:40:02.195Z,980
2019-04-14T11:41:04.396Z,971
2019-04-14T11:42:06.733Z,975
2019-04-14T11:43:08.902Z,996
2019-04-14T11:44:11.297Z,988
2019-04-14T11:45:13.514Z,995
2019-04-14T11:46:15.751Z,990
2019-04-14T11:47:18.098Z,985
2019-04-14T11:48:20.507Z,986
2019-04-14T11:49:22.640Z,989
2019-04-14T11:50:24.858Z,988
2019-04-14T11:51:27.120Z,1000
2019-04-14T11:52:29.392Z,988
2019-04-14T11:53:31.669Z,999
2019-04-14T11:54:33.939Z,977
2019-04-14T11:55:36.332Z,1002
2019-04-14T11:56:38.522Z,1011
2019-04-14T11:57:40.905Z,1001
2019-04-14T11:58:43.027Z,993
2019-04-14T11:59:45.303Z,993
2019-04-14T12:00:47.578Z,1007
2019-04-14T12:01:49.888Z,981
2019-04-14T12:02:52.127Z,989
2019-04-14T12:03:54.406Z,992
2019-04-14T12:04:56.680Z,991
2019-04-14T12:05:58.955Z,1002
2019-04-14T12:07:03.809Z,992
2019-04-14T12:08:03.571Z,1006
2019-04-14T12:09:05.772Z,1007
2019-04-14T12:10:08.052Z,1006
2019-04-14T12:11:10.326Z,1018
2019-04-14T12:12:12.621Z,1036
2019-04-14T12:13:18.775Z,1051
2019-04-14T12:14:17.139Z,1188
2019-04-14T12:15:19.414Z,1212
2019-04-14T12:16:21.752Z,1747
2019-04-14T12:17:23.957Z,1726
2019-04-14T12:18:26.237Z,1448
2019-04-14T12:19:28.499Z,1434
2019-04-14T12:20:30.867Z,1839
2019-04-14T12:21:33.065Z,2049
2019-04-14T12:22:35.468Z,1846
2019-04-14T12:23:37.600Z,2436
2019-04-14T12:24:39.877Z,1768
2019-04-14T12:25:42.155Z,1437
2019-04-14T12:26:44.425Z,1545
2019-04-14T12:27:46.706Z,1350
2019-04-14T12:28:48.974Z,1460
2019-04-14T12:29:51.301Z,1492
2019-04-14T12:30:53.509Z,1441
2019-04-14T12:31:55.865Z,1444
2019-04-14T12:32:58.057Z,1341
2019-04-14T12:34:00.501Z,1551
2019-04-14T12:35:02.621Z,1311
2019-04-14T12:36:04.932Z,1407
2019-04-14T12:37:08.430Z,1508
2019-04-14T12:38:09.427Z,1347
2019-04-14T12:39:11.690Z,1403
2019-04-14T12:40:13.970Z,1457
2019-04-14T12:41:16.257Z,1297
2019-04-14T12:42:18.525Z,1279
2019-04-14T12:43:20.783Z,1331
2019-04-14T12:44:23.085Z,1304
2019-04-14T12:45:25.385Z,1210
2019-04-14T12:46:27.882Z,1215
2019-04-14T12:47:29.888Z,1167
2019-04-14T12:48:32.318Z,1138
2019-04-14T12:49:38.247Z,1240
2019-04-14T12:50:36.751Z,1198
2019-04-14T12:51:38.996Z,1253
2019-04-14T12:52:41.272Z,1333
2019-04-14T12:53:43.641Z,1268
2019-04-14T12:54:45.817Z,1245
2019-04-14T12:55:48.546Z,1221
2019-04-14T12:56:50.672Z,1170
2019-04-14T12:57:52.628Z,1263
2019-04-14T12:58:54.899Z,1169
2019-04-14T12:59:57.193Z,1291
2019-04-14T13:00:59.559Z,1207
2019-04-14T13:02:01.732Z,1132
2019-04-14T13:03:04.154Z,1215
2019-04-14T13:04:06.745Z,1162
2019-04-14T13:05:08.559Z,1219
2019-04-14T13:06:10.912Z,1100
2019-04-14T13:07:13.223Z,1062
2019-04-14T13:08:15.395Z,1094
2019-04-14T13:09:17.650Z,1089
2019-04-14T13:10:19.919Z,1196
2019-04-14T13:11:22.203Z,1114
2019-04-14T13:12:24.464Z,1075
2019-04-14T13:13:27.852Z,1071
2019-04-14T13:14:29.012Z,1248
2019-04-14T13:15:31.287Z,1100
2019-04-14T13:16:33.558Z,966
2019-04-14T13:17:35.835Z,1071
2019-04-14T13:18:38.982Z,1104
2019-04-14T13:19:40.513Z,1176
2019-04-14T13:20:42.648Z,1136
2019-04-14T13:21:44.930Z,1048
2019-04-14T13:22:47.205Z,1080
2019-04-14T13:23:49.464Z,1077
2019-04-14T13:24:51.840Z,1096
2019-04-14T13:25:54.015Z,1080
2019-04-14T13:26:56.290Z,1105
2019-04-14T13:27:58.567Z,1082
2019-04-14T13:29:00.850Z,1039
2019-04-14T13:31:05.442Z,1055
2019-04-14T13:32:07.667Z,1112
2019-04-14T13:33:10.010Z,1071
2019-04-14T13:34:12.218Z,1041
2019-04-14T13:35:14.610Z,1028
2019-04-14T13:36:16.747Z,994
2019-04-14T13:37:19.051Z,970
2019-04-14T13:38:21.321Z,1065
2019-04-14T13:39:23.662Z,1005
2019-04-14T13:40:25.909Z,1045
2019-04-14T13:41:28.140Z,1065
2019-04-14T13:42:30.483Z,982
2019-04-14T13:43:32.671Z,1420
2019-04-14T13:44:34.947Z,1007
2019-04-14T13:45:37.291Z,1060
2019-04-14T13:46:39.482Z,1080
2019-04-14T13:47:41.769Z,1038
2019-04-14T13:48:44.033Z,1027
2019-04-14T13:49:46.378Z,1042
2019-04-14T13:51:50.922Z,1018
2019-04-14T13:52:53.156Z,1077
2019-04-14T13:53:55.518Z,1032
2019-04-14T13:54:57.760Z,1056
2019-04-14T13:55:59.986Z,1064
2019-04-14T13:57:02.312Z,999
2019-04-14T13:58:04.502Z,1062
2019-04-14T13:59:06.794Z,1023
2019-04-14T14:00:09.059Z,1064
2019-04-14T14:01:11.323Z,1072
2019-04-14T14:02:13.681Z,1030
2019-04-14T14:03:15.901Z,1054
2019-04-14T14:04:18.202Z,1064
2019-04-14T14:05:20.578Z,1046
2019-04-14T14:06:22.751Z,1019
2019-04-14T14:07:24.971Z,1025
2019-04-14T14:08:27.241Z,1056
2019-04-14T14:09:29.606Z,1055
2019-04-14T14:10:31.798Z,1007
2019-04-14T14:11:34.079Z,1059
2019-04-14T14:12:36.522Z,1061
2019-04-14T14:13:38.623Z,1023
2019-04-14T14:14:40.893Z,1059
2019-04-14T14:16:45.442Z,1004